sensor_id;sensor_type;location;lat;lon;timestamp;temperature;humidity
3198;DHT22;1611;49.394;11.136;2022-07-06T00:02:16;18.00;36.40
3198;DHT22;1611;49.394;11.136;2022-07-06T00:04:43;18.00;36.50
3198;DHT22;1611;49.394;11.136;2022-07-06T00:07:09;18.10;36.70
3198;DHT22;1611;49.394;11.136;2022-07-06T00:09:37;18.10;36.80
3198;DHT22;1611;49.394;11.136;2022-07-06T00:12:04;18.10;36.50
3198;DHT22;1611;49.394;11.136;2022-07-06T00:14:31;18.10;36.70
3198;DHT22;1611;49.394;11.136;2022-07-06T00:16:58;18.10;36.80
3198;DHT22;1611;49.394;11.136;2022-07-06T00:19:24;18.00;36.60
3198;DHT22;1611;49.394;11.136;2022-07-06T00:21:51;18.10;36.50
3198;DHT22;1611;49.394;11.136;2022-07-06T00:24:18;18.00;36.50
3198;DHT22;1611;49.394;11.136;2022-07-06T00:26:46;18.00;36.90
3198;DHT22;1611;49.394;11.136;2022-07-06T00:29:12;18.00;37.20
3198;DHT22;1611;49.394;11.136;2022-07-06T00:31:39;18.10;37.60
3198;DHT22;1611;49.394;11.136;2022-07-06T00:34:06;18.00;37.00
3198;DHT22;1611;49.394;11.136;2022-07-06T00:36:32;18.00;37.10
3198;DHT22;1611;49.394;11.136;2022-07-06T00:38:59;17.90;36.30
3198;DHT22;1611;49.394;11.136;2022-07-06T00:41:26;18.00;37.00
3198;DHT22;1611;49.394;11.136;2022-07-06T00:43:55;17.90;37.30
3198;DHT22;1611;49.394;11.136;2022-07-06T00:46:25;17.90;36.70
3198;DHT22;1611;49.394;11.136;2022-07-06T00:48:53;17.80;36.90
3198;DHT22;1611;49.394;11.136;2022-07-06T00:51:22;17.90;37.30
3198;DHT22;1611;49.394;11.136;2022-07-06T00:53:52;17.90;37.00
3198;DHT22;1611;49.394;11.136;2022-07-06T00:56:20;17.80;37.00
3198;DHT22;1611;49.394;11.136;2022-07-06T00:58:46;17.80;37.20
3198;DHT22;1611;49.394;11.136;2022-07-06T01:01:15;17.70;37.20
3198;DHT22;1611;49.394;11.136;2022-07-06T01:03:41;17.70;36.60
3198;DHT22;1611;49.394;11.136;2022-07-06T01:06:08;17.70;36.80
3198;DHT22;1611;49.394;11.136;2022-07-06T01:08:35;17.70;37.30
3198;DHT22;1611;49.394;11.136;2022-07-06T01:11:02;17.70;37.90
3198;DHT22;1611;49.394;11.136;2022-07-06T01:13:30;17.60;38.00
3198;DHT22;1611;49.394;11.136;2022-07-06T01:15:57;17.60;38.20
3198;DHT22;1611;49.394;11.136;2022-07-06T01:18:25;17.50;38.50
3198;DHT22;1611;49.394;11.136;2022-07-06T01:21:06;17.50;38.70
3198;DHT22;1611;49.394;11.136;2022-07-06T01:23:38;17.50;38.90
3198;DHT22;1611;49.394;11.136;2022-07-06T01:26:05;17.50;38.70
3198;DHT22;1611;49.394;11.136;2022-07-06T01:28:32;17.50;38.80
3198;DHT22;1611;49.394;11.136;2022-07-06T01:30:59;17.50;38.90
3198;DHT22;1611;49.394;11.136;2022-07-06T01:33:25;17.50;38.80
3198;DHT22;1611;49.394;11.136;2022-07-06T01:35:52;17.50;38.80
3198;DHT22;1611;49.394;11.136;2022-07-06T01:38:20;17.40;38.90
3198;DHT22;1611;49.394;11.136;2022-07-06T01:40:47;17.40;38.80
3198;DHT22;1611;49.394;11.136;2022-07-06T01:43:13;17.30;39.20
3198;DHT22;1611;49.394;11.136;2022-07-06T01:45:40;17.30;39.60
3198;DHT22;1611;49.394;11.136;2022-07-06T01:48:07;17.30;39.80
3198;DHT22;1611;49.394;11.136;2022-07-06T01:50:34;17.30;39.70
3198;DHT22;1611;49.394;11.136;2022-07-06T01:53:01;17.30;39.50
3198;DHT22;1611;49.394;11.136;2022-07-06T01:55:29;17.30;39.80
3198;DHT22;1611;49.394;11.136;2022-07-06T01:57:56;17.30;39.70
3198;DHT22;1611;49.394;11.136;2022-07-06T02:00:22;17.20;40.00
3198;DHT22;1611;49.394;11.136;2022-07-06T02:02:49;17.20;40.40
3198;DHT22;1611;49.394;11.136;2022-07-06T02:05:16;17.10;40.70
3198;DHT22;1611;49.394;11.136;2022-07-06T02:07:43;17.00;40.70
3198;DHT22;1611;49.394;11.136;2022-07-06T02:10:09;16.90;41.00
3198;DHT22;1611;49.394;11.136;2022-07-06T02:12:37;16.80;41.40
3198;DHT22;1611;49.394;11.136;2022-07-06T02:15:05;16.80;41.90
3198;DHT22;1611;49.394;11.136;2022-07-06T02:17:32;16.70;42.20
3198;DHT22;1611;49.394;11.136;2022-07-06T02:19:59;16.70;42.70
3198;DHT22;1611;49.394;11.136;2022-07-06T02:22:25;16.60;42.70
3198;DHT22;1611;49.394;11.136;2022-07-06T02:24:52;16.60;43.40
3198;DHT22;1611;49.394;11.136;2022-07-06T02:27:19;16.60;43.90
3198;DHT22;1611;49.394;11.136;2022-07-06T02:29:47;16.50;43.50
3198;DHT22;1611;49.394;11.136;2022-07-06T02:32:14;16.60;43.90
3198;DHT22;1611;49.394;11.136;2022-07-06T02:34:40;16.60;43.90
3198;DHT22;1611;49.394;11.136;2022-07-06T02:37:07;16.60;43.90
3198;DHT22;1611;49.394;11.136;2022-07-06T02:39:34;16.60;43.60
3198;DHT22;1611;49.394;11.136;2022-07-06T02:42:01;16.60;44.00
3198;DHT22;1611;49.394;11.136;2022-07-06T02:44:27;16.60;43.90
3198;DHT22;1611;49.394;11.136;2022-07-06T02:46:55;16.60;44.10
3198;DHT22;1611;49.394;11.136;2022-07-06T02:49:22;16.60;44.20
3198;DHT22;1611;49.394;11.136;2022-07-06T02:51:49;16.60;44.00
3198;DHT22;1611;49.394;11.136;2022-07-06T02:54:15;16.50;44.70
3198;DHT22;1611;49.394;11.136;2022-07-06T02:56:42;16.40;44.80
3198;DHT22;1611;49.394;11.136;2022-07-06T02:59:09;16.40;45.00
3198;DHT22;1611;49.394;11.136;2022-07-06T03:01:36;16.30;45.50
3198;DHT22;1611;49.394;11.136;2022-07-06T03:04:04;16.30;45.40
3198;DHT22;1611;49.394;11.136;2022-07-06T03:06:31;16.30;45.60
3198;DHT22;1611;49.394;11.136;2022-07-06T03:08:58;16.30;45.80
3198;DHT22;1611;49.394;11.136;2022-07-06T03:11:24;16.40;46.00
3198;DHT22;1611;49.394;11.136;2022-07-06T03:13:51;16.40;46.30
3198;DHT22;1611;49.394;11.136;2022-07-06T03:16:18;16.40;46.10
3198;DHT22;1611;49.394;11.136;2022-07-06T03:18:45;16.40;46.10
3198;DHT22;1611;49.394;11.136;2022-07-06T03:21:13;16.40;45.80
3198;DHT22;1611;49.394;11.136;2022-07-06T03:23:40;16.30;45.80
3198;DHT22;1611;49.394;11.136;2022-07-06T03:26:06;16.30;45.80
3198;DHT22;1611;49.394;11.136;2022-07-06T03:28:33;16.30;46.10
3198;DHT22;1611;49.394;11.136;2022-07-06T03:31:00;16.30;45.90
3198;DHT22;1611;49.394;11.136;2022-07-06T03:33:26;16.30;46.60
3198;DHT22;1611;49.394;11.136;2022-07-06T03:35:53;16.20;46.30
3198;DHT22;1611;49.394;11.136;2022-07-06T03:38:21;16.20;46.70
3198;DHT22;1611;49.394;11.136;2022-07-06T03:40:48;16.20;46.40
3198;DHT22;1611;49.394;11.136;2022-07-06T03:43:15;16.20;47.20
3198;DHT22;1611;49.394;11.136;2022-07-06T03:45:42;16.20;46.90
3198;DHT22;1611;49.394;11.136;2022-07-06T03:48:08;16.20;46.80
3198;DHT22;1611;49.394;11.136;2022-07-06T03:50:35;16.30;46.80
3198;DHT22;1611;49.394;11.136;2022-07-06T03:53:02;16.30;46.90
3198;DHT22;1611;49.394;11.136;2022-07-06T03:55:30;16.40;46.60
3198;DHT22;1611;49.394;11.136;2022-07-06T03:57:57;16.40;46.50
3198;DHT22;1611;49.394;11.136;2022-07-06T04:00:24;16.40;46.70
3198;DHT22;1611;49.394;11.136;2022-07-06T04:02:51;16.40;46.30
3198;DHT22;1611;49.394;11.136;2022-07-06T04:05:17;16.40;46.50
3198;DHT22;1611;49.394;11.136;2022-07-06T04:07:46;16.50;46.30
3198;DHT22;1611;49.394;11.136;2022-07-06T04:10:13;16.70;45.60
3198;DHT22;1611;49.394;11.136;2022-07-06T04:12:41;16.70;45.90
3198;DHT22;1611;49.394;11.136;2022-07-06T04:15:09;16.80;45.70
3198;DHT22;1611;49.394;11.136;2022-07-06T04:17:36;17.00;45.50
3198;DHT22;1611;49.394;11.136;2022-07-06T04:20:18;17.10;45.40
3198;DHT22;1611;49.394;11.136;2022-07-06T04:22:45;17.20;45.00
3198;DHT22;1611;49.394;11.136;2022-07-06T04:25:12;17.30;44.40
3198;DHT22;1611;49.394;11.136;2022-07-06T04:27:40;17.40;44.40
3198;DHT22;1611;49.394;11.136;2022-07-06T04:30:09;17.40;44.10
3198;DHT22;1611;49.394;11.136;2022-07-06T04:32:36;17.30;44.20
3198;DHT22;1611;49.394;11.136;2022-07-06T04:35:03;17.30;44.40
3198;DHT22;1611;49.394;11.136;2022-07-06T04:37:31;17.40;44.60
3198;DHT22;1611;49.394;11.136;2022-07-06T04:39:59;17.40;44.30
3198;DHT22;1611;49.394;11.136;2022-07-06T04:42:26;17.50;41.70
3198;DHT22;1611;49.394;11.136;2022-07-06T04:44:54;17.70;42.10
3198;DHT22;1611;49.394;11.136;2022-07-06T04:47:21;17.90;43.30
3198;DHT22;1611;49.394;11.136;2022-07-06T04:49:47;18.00;42.90
3198;DHT22;1611;49.394;11.136;2022-07-06T04:52:14;18.10;43.70
3198;DHT22;1611;49.394;11.136;2022-07-06T04:54:41;18.10;43.80
3198;DHT22;1611;49.394;11.136;2022-07-06T04:57:08;18.10;44.10
3198;DHT22;1611;49.394;11.136;2022-07-06T04:59:34;18.10;43.40
3198;DHT22;1611;49.394;11.136;2022-07-06T05:02:03;18.10;43.40
3198;DHT22;1611;49.394;11.136;2022-07-06T05:04:29;18.20;41.30
3198;DHT22;1611;49.394;11.136;2022-07-06T05:06:56;18.30;42.10
3198;DHT22;1611;49.394;11.136;2022-07-06T05:09:23;18.40;43.20
3198;DHT22;1611;49.394;11.136;2022-07-06T05:11:50;18.60;43.60
3198;DHT22;1611;49.394;11.136;2022-07-06T05:14:16;18.60;42.20
3198;DHT22;1611;49.394;11.136;2022-07-06T05:16:43;18.70;39.80
3198;DHT22;1611;49.394;11.136;2022-07-06T05:19:11;18.80;37.60
3198;DHT22;1611;49.394;11.136;2022-07-06T05:21:38;18.90;38.00
3198;DHT22;1611;49.394;11.136;2022-07-06T05:24:05;19.00;37.40
3198;DHT22;1611;49.394;11.136;2022-07-06T05:26:32;19.00;35.00
3198;DHT22;1611;49.394;11.136;2022-07-06T05:28:59;19.00;35.10
3198;DHT22;1611;49.394;11.136;2022-07-06T05:31:26;19.00;35.50
3198;DHT22;1611;49.394;11.136;2022-07-06T05:33:52;19.10;35.40
3198;DHT22;1611;49.394;11.136;2022-07-06T05:36:21;19.10;34.30
3198;DHT22;1611;49.394;11.136;2022-07-06T05:38:47;19.10;34.10
3198;DHT22;1611;49.394;11.136;2022-07-06T05:41:14;19.00;34.50
3198;DHT22;1611;49.394;11.136;2022-07-06T05:43:41;19.00;34.50
3198;DHT22;1611;49.394;11.136;2022-07-06T05:46:08;19.10;34.70
3198;DHT22;1611;49.394;11.136;2022-07-06T05:48:35;19.20;34.70
3198;DHT22;1611;49.394;11.136;2022-07-06T05:51:20;19.30;34.40
3198;DHT22;1611;49.394;11.136;2022-07-06T05:53:47;19.50;34.70
3198;DHT22;1611;49.394;11.136;2022-07-06T05:56:14;19.70;33.90
3198;DHT22;1611;49.394;11.136;2022-07-06T05:58:41;19.80;32.70
3198;DHT22;1611;49.394;11.136;2022-07-06T06:01:08;19.90;32.80
3198;DHT22;1611;49.394;11.136;2022-07-06T06:03:35;19.90;32.10
3198;DHT22;1611;49.394;11.136;2022-07-06T06:06:02;19.90;33.20
3198;DHT22;1611;49.394;11.136;2022-07-06T06:08:30;19.90;32.10
3198;DHT22;1611;49.394;11.136;2022-07-06T06:10:57;20.00;32.30
3198;DHT22;1611;49.394;11.136;2022-07-06T06:13:24;20.00;32.60
3198;DHT22;1611;49.394;11.136;2022-07-06T06:15:50;19.90;32.30
3198;DHT22;1611;49.394;11.136;2022-07-06T06:18:17;19.80;32.00
3198;DHT22;1611;49.394;11.136;2022-07-06T06:20:44;19.80;32.10
3198;DHT22;1611;49.394;11.136;2022-07-06T06:23:11;19.90;32.20
3198;DHT22;1611;49.394;11.136;2022-07-06T06:25:39;20.00;32.30
3198;DHT22;1611;49.394;11.136;2022-07-06T06:28:07;20.10;31.30
3198;DHT22;1611;49.394;11.136;2022-07-06T06:30:35;20.20;31.00
3198;DHT22;1611;49.394;11.136;2022-07-06T06:33:09;20.20;31.40
3198;DHT22;1611;49.394;11.136;2022-07-06T06:35:36;20.40;30.70
3198;DHT22;1611;49.394;11.136;2022-07-06T06:38:03;20.60;31.30
3198;DHT22;1611;49.394;11.136;2022-07-06T06:40:30;20.60;29.80
3198;DHT22;1611;49.394;11.136;2022-07-06T06:42:59;20.60;29.90
3198;DHT22;1611;49.394;11.136;2022-07-06T06:45:26;20.80;30.50
3198;DHT22;1611;49.394;11.136;2022-07-06T06:47:53;20.80;29.50
3198;DHT22;1611;49.394;11.136;2022-07-06T06:50:20;20.80;28.50
3198;DHT22;1611;49.394;11.136;2022-07-06T06:52:48;20.80;28.90
3198;DHT22;1611;49.394;11.136;2022-07-06T06:55:15;20.90;28.80
3198;DHT22;1611;49.394;11.136;2022-07-06T06:57:42;21.00;28.90
3198;DHT22;1611;49.394;11.136;2022-07-06T07:00:11;21.00;27.70
3198;DHT22;1611;49.394;11.136;2022-07-06T07:02:38;21.10;28.10
3198;DHT22;1611;49.394;11.136;2022-07-06T07:05:05;21.30;28.00
3198;DHT22;1611;49.394;11.136;2022-07-06T07:07:32;21.40;28.40
3198;DHT22;1611;49.394;11.136;2022-07-06T07:09:59;21.50;28.00
3198;DHT22;1611;49.394;11.136;2022-07-06T07:12:26;21.60;27.90
3198;DHT22;1611;49.394;11.136;2022-07-06T07:14:53;21.60;26.80
3198;DHT22;1611;49.394;11.136;2022-07-06T07:17:21;21.70;27.80
3198;DHT22;1611;49.394;11.136;2022-07-06T07:19:48;21.60;26.80
3198;DHT22;1611;49.394;11.136;2022-07-06T07:22:15;21.60;27.90
3198;DHT22;1611;49.394;11.136;2022-07-06T07:24:41;21.60;27.50
3198;DHT22;1611;49.394;11.136;2022-07-06T07:27:08;21.50;26.90
3198;DHT22;1611;49.394;11.136;2022-07-06T07:29:35;21.50;28.00
3198;DHT22;1611;49.394;11.136;2022-07-06T07:32:02;21.70;27.90
3198;DHT22;1611;49.394;11.136;2022-07-06T07:34:31;21.80;27.60
3198;DHT22;1611;49.394;11.136;2022-07-06T07:36:57;22.00;26.80
3198;DHT22;1611;49.394;11.136;2022-07-06T07:39:24;22.20;27.20
3198;DHT22;1611;49.394;11.136;2022-07-06T07:41:51;22.30;26.20
3198;DHT22;1611;49.394;11.136;2022-07-06T07:44:17;22.40;25.30
3198;DHT22;1611;49.394;11.136;2022-07-06T07:46:44;22.00;24.90
3198;DHT22;1611;49.394;11.136;2022-07-06T07:49:11;21.80;26.10
3198;DHT22;1611;49.394;11.136;2022-07-06T07:51:39;21.80;27.00
3198;DHT22;1611;49.394;11.136;2022-07-06T07:54:07;21.80;26.90
3198;DHT22;1611;49.394;11.136;2022-07-06T07:56:33;21.80;26.50
3198;DHT22;1611;49.394;11.136;2022-07-06T07:59:00;21.80;26.10
3198;DHT22;1611;49.394;11.136;2022-07-06T08:01:27;21.90;26.00
3198;DHT22;1611;49.394;11.136;2022-07-06T08:03:53;21.80;26.60
3198;DHT22;1611;49.394;11.136;2022-07-06T08:06:20;22.00;26.20
3198;DHT22;1611;49.394;11.136;2022-07-06T08:08:48;22.20;25.90
3198;DHT22;1611;49.394;11.136;2022-07-06T08:11:15;22.30;25.50
3198;DHT22;1611;49.394;11.136;2022-07-06T08:13:42;22.50;25.80
3198;DHT22;1611;49.394;11.136;2022-07-06T08:16:10;22.60;24.70
3198;DHT22;1611;49.394;11.136;2022-07-06T08:18:37;22.60;24.00
3198;DHT22;1611;49.394;11.136;2022-07-06T08:21:04;22.70;23.70
3198;DHT22;1611;49.394;11.136;2022-07-06T08:23:31;22.80;24.30
3198;DHT22;1611;49.394;11.136;2022-07-06T08:26:01;22.80;22.10
3198;DHT22;1611;49.394;11.136;2022-07-06T08:28:28;22.90;22.60
3198;DHT22;1611;49.394;11.136;2022-07-06T08:30:55;23.10;23.00
3198;DHT22;1611;49.394;11.136;2022-07-06T08:33:21;23.20;21.70
3198;DHT22;1611;49.394;11.136;2022-07-06T08:35:48;23.20;22.70
3198;DHT22;1611;49.394;11.136;2022-07-06T08:38:15;23.30;22.40
3198;DHT22;1611;49.394;11.136;2022-07-06T08:40:43;23.50;21.50
3198;DHT22;1611;49.394;11.136;2022-07-06T08:43:13;23.50;22.80
3198;DHT22;1611;49.394;11.136;2022-07-06T08:45:41;23.50;21.80
3198;DHT22;1611;49.394;11.136;2022-07-06T08:48:10;23.70;20.30
3198;DHT22;1611;49.394;11.136;2022-07-06T08:50:37;23.70;20.80
3198;DHT22;1611;49.394;11.136;2022-07-06T08:53:04;24.00;20.90
3198;DHT22;1611;49.394;11.136;2022-07-06T08:55:32;24.00;20.80
3198;DHT22;1611;49.394;11.136;2022-07-06T08:57:59;24.20;20.20
3198;DHT22;1611;49.394;11.136;2022-07-06T09:00:27;24.10;20.00
3198;DHT22;1611;49.394;11.136;2022-07-06T09:02:54;24.20;19.20
3198;DHT22;1611;49.394;11.136;2022-07-06T09:05:23;24.40;19.90
3198;DHT22;1611;49.394;11.136;2022-07-06T09:07:50;24.50;19.00
3198;DHT22;1611;49.394;11.136;2022-07-06T09:10:19;24.60;19.50
3198;DHT22;1611;49.394;11.136;2022-07-06T09:12:46;24.80;19.10
3198;DHT22;1611;49.394;11.136;2022-07-06T09:15:12;25.00;17.70
3198;DHT22;1611;49.394;11.136;2022-07-06T09:17:42;25.00;17.70
3198;DHT22;1611;49.394;11.136;2022-07-06T09:20:10;25.10;18.20
3198;DHT22;1611;49.394;11.136;2022-07-06T09:22:37;24.80;17.80
3198;DHT22;1611;49.394;11.136;2022-07-06T09:25:06;24.70;18.50
3198;DHT22;1611;49.394;11.136;2022-07-06T09:27:37;24.60;19.20
3198;DHT22;1611;49.394;11.136;2022-07-06T09:30:06;24.80;19.40
3198;DHT22;1611;49.394;11.136;2022-07-06T09:32:38;25.10;18.60
3198;DHT22;1611;49.394;11.136;2022-07-06T09:35:07;25.40;18.60
3198;DHT22;1611;49.394;11.136;2022-07-06T09:37:34;25.50;17.90
3198;DHT22;1611;49.394;11.136;2022-07-06T09:40:03;25.50;17.70
3198;DHT22;1611;49.394;11.136;2022-07-06T09:42:42;25.50;17.40
3198;DHT22;1611;49.394;11.136;2022-07-06T09:45:09;25.10;16.70
3198;DHT22;1611;49.394;11.136;2022-07-06T09:47:36;25.20;18.00
3198;DHT22;1611;49.394;11.136;2022-07-06T09:50:05;25.30;17.50
3198;DHT22;1611;49.394;11.136;2022-07-06T09:52:35;25.20;18.20
3198;DHT22;1611;49.394;11.136;2022-07-06T09:55:08;25.10;17.90
3198;DHT22;1611;49.394;11.136;2022-07-06T09:57:52;25.00;18.30
3198;DHT22;1611;49.394;11.136;2022-07-06T10:00:20;25.20;18.10
3198;DHT22;1611;49.394;11.136;2022-07-06T10:02:49;25.40;18.50
3198;DHT22;1611;49.394;11.136;2022-07-06T10:05:17;25.70;17.50
3198;DHT22;1611;49.394;11.136;2022-07-06T10:07:46;25.90;16.60
3198;DHT22;1611;49.394;11.136;2022-07-06T10:10:15;26.20;17.00
3198;DHT22;1611;49.394;11.136;2022-07-06T10:12:44;26.30;17.80
3198;DHT22;1611;49.394;11.136;2022-07-06T10:15:15;26.40;17.80
3198;DHT22;1611;49.394;11.136;2022-07-06T10:17:44;26.30;16.60
3198;DHT22;1611;49.394;11.136;2022-07-06T10:20:12;26.50;16.10
3198;DHT22;1611;49.394;11.136;2022-07-06T10:22:40;26.60;16.80
3198;DHT22;1611;49.394;11.136;2022-07-06T10:25:09;26.50;16.60
3198;DHT22;1611;49.394;11.136;2022-07-06T10:27:36;26.20;16.40
3198;DHT22;1611;49.394;11.136;2022-07-06T10:30:05;25.60;16.40
3198;DHT22;1611;49.394;11.136;2022-07-06T10:32:32;25.40;18.00
3198;DHT22;1611;49.394;11.136;2022-07-06T10:34:59;25.80;16.80
3198;DHT22;1611;49.394;11.136;2022-07-06T10:37:27;25.70;16.60
3198;DHT22;1611;49.394;11.136;2022-07-06T10:39:54;25.90;18.00
3198;DHT22;1611;49.394;11.136;2022-07-06T10:42:43;26.40;16.20
3198;DHT22;1611;49.394;11.136;2022-07-06T10:45:12;26.30;15.80
3198;DHT22;1611;49.394;11.136;2022-07-06T10:47:40;26.00;16.70
3198;DHT22;1611;49.394;11.136;2022-07-06T10:50:08;26.20;17.10
3198;DHT22;1611;49.394;11.136;2022-07-06T10:52:51;26.30;15.90
3198;DHT22;1611;49.394;11.136;2022-07-06T10:55:31;26.80;15.10
3198;DHT22;1611;49.394;11.136;2022-07-06T10:58:00;27.20;14.50
3198;DHT22;1611;49.394;11.136;2022-07-06T11:00:49;27.50;13.70
3198;DHT22;1611;49.394;11.136;2022-07-06T11:03:33;27.80;14.70
3198;DHT22;1611;49.394;11.136;2022-07-06T11:06:01;28.30;13.40
3198;DHT22;1611;49.394;11.136;2022-07-06T11:08:51;28.80;12.30
3198;DHT22;1611;49.394;11.136;2022-07-06T11:11:20;29.30;14.00
3198;DHT22;1611;49.394;11.136;2022-07-06T11:13:50;29.70;12.70
3198;DHT22;1611;49.394;11.136;2022-07-06T11:16:18;30.00;11.50
3198;DHT22;1611;49.394;11.136;2022-07-06T11:18:50;29.80;11.50
3198;DHT22;1611;49.394;11.136;2022-07-06T11:21:33;29.30;11.80
3198;DHT22;1611;49.394;11.136;2022-07-06T11:24:01;28.40;12.60
3198;DHT22;1611;49.394;11.136;2022-07-06T11:26:30;27.90;13.60
3198;DHT22;1611;49.394;11.136;2022-07-06T11:28:59;27.50;13.80
3198;DHT22;1611;49.394;11.136;2022-07-06T11:31:26;27.60;14.00
3198;DHT22;1611;49.394;11.136;2022-07-06T11:33:53;27.40;13.60
3198;DHT22;1611;49.394;11.136;2022-07-06T11:36:21;27.40;15.80
3198;DHT22;1611;49.394;11.136;2022-07-06T11:38:49;28.00;14.20
3198;DHT22;1611;49.394;11.136;2022-07-06T11:41:17;27.90;14.40
3198;DHT22;1611;49.394;11.136;2022-07-06T11:43:45;27.90;13.10
3198;DHT22;1611;49.394;11.136;2022-07-06T11:46:24;28.80;11.60
3198;DHT22;1611;49.394;11.136;2022-07-06T11:48:53;28.60;11.40
3198;DHT22;1611;49.394;11.136;2022-07-06T11:51:21;28.30;12.50
3198;DHT22;1611;49.394;11.136;2022-07-06T11:53:50;27.80;12.20
3198;DHT22;1611;49.394;11.136;2022-07-06T11:56:17;27.50;13.10
3198;DHT22;1611;49.394;11.136;2022-07-06T11:58:49;27.30;14.80
3198;DHT22;1611;49.394;11.136;2022-07-06T12:01:16;27.20;14.90
3198;DHT22;1611;49.394;11.136;2022-07-06T12:03:45;28.70;12.90
3198;DHT22;1611;49.394;11.136;2022-07-06T12:06:17;30.80;11.30
3198;DHT22;1611;49.394;11.136;2022-07-06T12:08:46;32.70;8.30
3198;DHT22;1611;49.394;11.136;2022-07-06T12:11:20;34.50;5.60
3198;DHT22;1611;49.394;11.136;2022-07-06T12:13:48;35.20;4.90
3198;DHT22;1611;49.394;11.136;2022-07-06T12:16:16;35.60;4.80
3198;DHT22;1611;49.394;11.136;2022-07-06T12:18:46;35.20;4.60
3198;DHT22;1611;49.394;11.136;2022-07-06T12:21:15;35.90;4.00
3198;DHT22;1611;49.394;11.136;2022-07-06T12:23:44;37.20;3.50
3198;DHT22;1611;49.394;11.136;2022-07-06T12:26:11;38.20;2.80
3198;DHT22;1611;49.394;11.136;2022-07-06T12:28:38;39.10;1.50
3198;DHT22;1611;49.394;11.136;2022-07-06T12:31:05;39.50;1.50
3198;DHT22;1611;49.394;11.136;2022-07-06T12:33:32;39.30;2.40
3198;DHT22;1611;49.394;11.136;2022-07-06T12:36:14;39.20;1.60
3198;DHT22;1611;49.394;11.136;2022-07-06T12:38:46;39.20;2.00
3198;DHT22;1611;49.394;11.136;2022-07-06T12:41:31;38.30;2.40
3198;DHT22;1611;49.394;11.136;2022-07-06T12:44:08;39.00;2.20
3198;DHT22;1611;49.394;11.136;2022-07-06T12:46:37;39.30;1.00
3198;DHT22;1611;49.394;11.136;2022-07-06T12:49:12;40.10;1.00
3198;DHT22;1611;49.394;11.136;2022-07-06T12:51:52;41.20;1.00
3198;DHT22;1611;49.394;11.136;2022-07-06T12:54:19;41.40;1.00
3198;DHT22;1611;49.394;11.136;2022-07-06T12:57:04;42.10;1.00
3198;DHT22;1611;49.394;11.136;2022-07-06T12:59:34;42.20;1.00
3198;DHT22;1611;49.394;11.136;2022-07-06T13:02:01;41.80;1.00
3198;DHT22;1611;49.394;11.136;2022-07-06T13:04:29;41.60;1.00
3198;DHT22;1611;49.394;11.136;2022-07-06T13:06:58;40.80;1.00
3198;DHT22;1611;49.394;11.136;2022-07-06T13:09:26;39.40;1.00
3198;DHT22;1611;49.394;11.136;2022-07-06T13:11:54;37.40;2.40
3198;DHT22;1611;49.394;11.136;2022-07-06T13:14:20;36.60;2.80
3198;DHT22;1611;49.394;11.136;2022-07-06T13:16:48;37.90;2.30
3198;DHT22;1611;49.394;11.136;2022-07-06T13:19:15;39.70;1.00
3198;DHT22;1611;49.394;11.136;2022-07-06T13:21:41;39.40;1.60
3198;DHT22;1611;49.394;11.136;2022-07-06T13:24:11;37.80;2.00
3198;DHT22;1611;49.394;11.136;2022-07-06T13:26:38;35.40;4.10
3198;DHT22;1611;49.394;11.136;2022-07-06T13:29:05;35.60;3.90
3198;DHT22;1611;49.394;11.136;2022-07-06T13:31:32;37.30;2.90
3198;DHT22;1611;49.394;11.136;2022-07-06T13:33:59;39.00;1.50
3198;DHT22;1611;49.394;11.136;2022-07-06T13:36:26;39.40;1.30
3198;DHT22;1611;49.394;11.136;2022-07-06T13:38:52;40.10;1.20
3198;DHT22;1611;49.394;11.136;2022-07-06T13:41:21;41.10;1.00
3198;DHT22;1611;49.394;11.136;2022-07-06T13:43:47;40.70;1.00
3198;DHT22;1611;49.394;11.136;2022-07-06T13:46:14;41.60;1.00
3198;DHT22;1611;49.394;11.136;2022-07-06T13:48:42;41.40;1.00
3198;DHT22;1611;49.394;11.136;2022-07-06T13:51:09;40.50;1.00
3198;DHT22;1611;49.394;11.136;2022-07-06T13:53:36;40.70;1.00
3198;DHT22;1611;49.394;11.136;2022-07-06T13:56:04;41.50;1.00
3198;DHT22;1611;49.394;11.136;2022-07-06T13:58:32;42.10;1.00
3198;DHT22;1611;49.394;11.136;2022-07-06T14:00:58;40.30;1.00
3198;DHT22;1611;49.394;11.136;2022-07-06T14:03:25;40.40;1.00
3198;DHT22;1611;49.394;11.136;2022-07-06T14:05:55;40.90;1.00
3198;DHT22;1611;49.394;11.136;2022-07-06T14:08:22;40.90;1.00
3198;DHT22;1611;49.394;11.136;2022-07-06T14:10:49;41.00;1.00
3198;DHT22;1611;49.394;11.136;2022-07-06T14:13:16;41.00;1.00
3198;DHT22;1611;49.394;11.136;2022-07-06T14:15:44;40.30;1.00
3198;DHT22;1611;49.394;11.136;2022-07-06T14:18:11;39.30;1.00
3198;DHT22;1611;49.394;11.136;2022-07-06T14:20:38;38.80;1.00
3198;DHT22;1611;49.394;11.136;2022-07-06T14:23:05;39.20;1.30
3198;DHT22;1611;49.394;11.136;2022-07-06T14:25:31;38.60;1.20
3198;DHT22;1611;49.394;11.136;2022-07-06T14:27:59;38.10;2.10
3198;DHT22;1611;49.394;11.136;2022-07-06T14:30:25;38.60;1.50
3198;DHT22;1611;49.394;11.136;2022-07-06T14:32:53;39.30;1.00
3198;DHT22;1611;49.394;11.136;2022-07-06T14:35:20;40.00;1.00
3198;DHT22;1611;49.394;11.136;2022-07-06T14:37:47;40.50;1.00
3198;DHT22;1611;49.394;11.136;2022-07-06T14:40:14;39.80;1.00
3198;DHT22;1611;49.394;11.136;2022-07-06T14:42:41;40.30;1.00
3198;DHT22;1611;49.394;11.136;2022-07-06T14:45:08;40.70;1.00
3198;DHT22;1611;49.394;11.136;2022-07-06T14:47:35;40.00;1.00
3198;DHT22;1611;49.394;11.136;2022-07-06T14:50:04;37.50;2.10
3198;DHT22;1611;49.394;11.136;2022-07-06T14:52:31;35.20;3.40
3198;DHT22;1611;49.394;11.136;2022-07-06T14:54:58;33.40;5.00
3198;DHT22;1611;49.394;11.136;2022-07-06T14:57:26;32.40;6.80
3198;DHT22;1611;49.394;11.136;2022-07-06T14:59:52;31.90;6.70
3198;DHT22;1611;49.394;11.136;2022-07-06T15:02:19;31.50;6.80
3198;DHT22;1611;49.394;11.136;2022-07-06T15:04:46;31.70;6.40
3198;DHT22;1611;49.394;11.136;2022-07-06T15:07:14;31.00;6.80
3198;DHT22;1611;49.394;11.136;2022-07-06T15:09:42;30.30;8.40
3198;DHT22;1611;49.394;11.136;2022-07-06T15:12:09;29.90;8.30
3198;DHT22;1611;49.394;11.136;2022-07-06T15:14:36;30.90;7.60
3198;DHT22;1611;49.394;11.136;2022-07-06T15:17:03;30.90;7.30
3198;DHT22;1611;49.394;11.136;2022-07-06T15:19:30;30.80;8.00
3198;DHT22;1611;49.394;11.136;2022-07-06T15:21:57;30.50;8.20
3198;DHT22;1611;49.394;11.136;2022-07-06T15:24:25;29.90;8.20
3198;DHT22;1611;49.394;11.136;2022-07-06T15:26:52;29.40;9.50
3198;DHT22;1611;49.394;11.136;2022-07-06T15:29:19;29.00;10.20
3198;DHT22;1611;49.394;11.136;2022-07-06T15:31:45;28.60;10.80
3198;DHT22;1611;49.394;11.136;2022-07-06T15:34:12;28.20;11.80
3198;DHT22;1611;49.394;11.136;2022-07-06T15:36:39;27.90;11.90
3198;DHT22;1611;49.394;11.136;2022-07-06T15:39:06;27.70;11.90
3198;DHT22;1611;49.394;11.136;2022-07-06T15:41:34;28.10;11.30
3198;DHT22;1611;49.394;11.136;2022-07-06T15:44:01;27.90;10.30
3198;DHT22;1611;49.394;11.136;2022-07-06T15:46:28;28.10;11.10
3198;DHT22;1611;49.394;11.136;2022-07-06T15:48:55;28.00;11.30
3198;DHT22;1611;49.394;11.136;2022-07-06T15:51:22;27.70;10.90
3198;DHT22;1611;49.394;11.136;2022-07-06T15:53:49;27.30;12.00
3198;DHT22;1611;49.394;11.136;2022-07-06T15:56:16;27.00;12.10